createdAt,value
2018-01-23T00:04:14.220Z,95768
2018-01-23T00:10:02.550Z,95776
2018-01-23T00:15:30.751Z,95754
2018-01-23T00:20:58.940Z,95767
2018-01-23T00:26:35.882Z,95781
2018-01-23T00:32:04.083Z,95793
2018-01-23T00:37:33.075Z,95799
2018-01-23T00:43:01.503Z,95804
2018-01-23T00:48:29.695Z,95808
2018-01-23T00:53:57.878Z,95827
2018-01-23T00:59:31.253Z,95844
2018-01-23T01:04:59.437Z,95856
2018-01-23T01:10:28.373Z,95852
2018-01-23T01:16:01.978Z,95860
2018-01-23T01:21:30.394Z,95843
2018-01-23T01:26:58.638Z,95835
2018-01-23T01:32:26.820Z,95855
2018-01-23T01:37:56.998Z,95849
2018-01-23T01:43:25.189Z,95842
2018-01-23T01:48:54.560Z,95866
2018-01-23T01:54:22.762Z,95877
2018-01-23T01:59:50.944Z,95877
2018-01-23T02:05:19.187Z,95888
2018-01-23T02:10:48.165Z,95902
2018-01-23T02:16:17.397Z,95914
2018-01-23T02:21:45.638Z,95929
2018-01-23T02:27:14.643Z,95936
2018-01-23T02:32:42.829Z,95947
2018-01-23T02:38:11.333Z,95933
2018-01-23T02:43:39.737Z,95950
2018-01-23T02:49:07.930Z,95949
2018-01-23T02:54:36.906Z,95950
2018-01-23T03:00:05.339Z,95947
2018-01-23T03:05:33.557Z,95960
2018-01-23T03:11:01.763Z,95976
2018-01-23T03:16:29.945Z,95999
2018-01-23T03:21:58.117Z,95997
2018-01-23T03:27:26.315Z,96014
2018-01-23T03:32:54.506Z,96000
2018-01-23T03:38:23.557Z,96023
2018-01-23T03:43:52.567Z,96035
2018-01-23T03:49:20.797Z,96041
2018-01-23T03:54:49.000Z,96037
2018-01-23T04:00:18.154Z,96037
2018-01-23T04:05:46.438Z,96038
2018-01-23T04:11:14.648Z,96039
2018-01-23T04:16:42.849Z,96055
2018-01-23T04:22:17.475Z,96055
2018-01-23T04:27:45.699Z,96060
2018-01-23T04:33:18.947Z,96068
2018-01-23T04:38:47.185Z,96073
2018-01-23T04:44:19.570Z,96089
2018-01-23T04:49:47.812Z,96090
2018-01-23T04:55:16.039Z,96090
2018-01-23T05:00:45.076Z,96108
2018-01-23T05:06:14.074Z,96106
2018-01-23T05:11:42.280Z,96117
2018-01-23T05:17:10.507Z,96124
2018-01-23T05:22:38.718Z,96132
2018-01-23T05:28:19.137Z,96145
2018-01-23T05:33:47.334Z,96163
2018-01-23T05:39:16.307Z,96169
2018-01-23T05:44:47.289Z,96185
2018-01-23T05:50:16.681Z,96193
2018-01-23T05:55:45.819Z,96200
2018-01-23T06:01:13.983Z,96206
2018-01-23T06:06:42.187Z,96219
2018-01-23T06:12:11.470Z,96222
2018-01-23T06:17:40.125Z,96228
2018-01-23T06:23:08.649Z,96238
2018-01-23T06:28:36.835Z,96228
2018-01-23T06:34:05.042Z,96244
2018-01-23T06:39:33.239Z,96249
2018-01-23T06:45:01.758Z,96264
2018-01-23T06:50:29.931Z,96261
2018-01-23T06:55:59.882Z,96270
2018-01-23T07:01:28.079Z,96292
2018-01-23T07:06:57.075Z,96290
2018-01-23T07:12:25.270Z,96304
2018-01-23T07:17:53.479Z,96311
2018-01-23T07:23:21.663Z,96317
2018-01-23T07:28:50.121Z,96331
2018-01-23T07:34:18.545Z,96339
2018-01-23T07:39:46.724Z,96357
2018-01-23T07:45:14.934Z,96378
2018-01-23T07:50:43.137Z,96380
2018-01-23T07:56:11.323Z,96377
2018-01-23T08:01:39.516Z,96387
2018-01-23T08:07:07.716Z,96389
2018-01-23T08:12:35.897Z,96398
2018-01-23T08:18:04.883Z,96405
2018-01-23T08:23:33.848Z,96416
2018-01-23T08:29:02.798Z,96422
2018-01-23T08:34:31.768Z,96436
2018-01-23T08:39:59.969Z,96438
2018-01-23T08:45:30.069Z,96446
2018-01-23T08:50:58.254Z,96445
2018-01-23T08:56:26.544Z,96454
2018-01-23T09:01:54.739Z,96471
2018-01-23T09:07:22.942Z,96463
2018-01-23T09:12:51.143Z,96485
2018-01-23T09:18:22.981Z,96491
2018-01-23T09:23:51.196Z,96497
2018-01-23T09:29:25.024Z,96507
2018-01-23T09:34:53.232Z,96520
2018-01-23T09:40:22.258Z,96536
2018-01-23T09:45:50.629Z,96533
2018-01-23T09:51:18.834Z,96544
2018-01-23T09:56:47.044Z,96541
2018-01-23T10:02:15.271Z,96547
2018-01-23T10:07:43.467Z,96551
2018-01-23T10:13:12.439Z,96548
2018-01-23T10:18:40.615Z,96548
2018-01-23T10:24:08.793Z,96547
2018-01-23T10:29:36.978Z,96543
2018-01-23T10:35:05.921Z,96550
2018-01-23T10:40:34.097Z,96555
2018-01-23T10:46:02.294Z,96564
2018-01-23T10:51:30.476Z,96561
2018-01-23T10:56:59.417Z,96560
2018-01-23T11:02:28.388Z,96552
2018-01-23T11:07:56.577Z,96558
2018-01-23T11:13:25.542Z,96553
2018-01-23T11:18:53.733Z,96553
2018-01-23T11:24:22.684Z,96552
2018-01-23T11:29:50.901Z,96552
2018-01-23T11:35:19.132Z,96546
2018-01-23T11:40:47.317Z,96538
2018-01-23T11:46:15.526Z,96556
2018-01-23T11:51:43.766Z,96539
2018-01-23T11:57:12.033Z,96544
2018-01-23T12:02:40.237Z,96534
2018-01-23T12:08:08.444Z,96528
2018-01-23T12:13:37.407Z,96534
2018-01-23T12:19:05.585Z,96527
2018-01-23T12:24:33.766Z,96522
2018-01-23T12:30:01.973Z,96527
2018-01-23T12:35:30.177Z,96518
2018-01-23T12:41:04.705Z,96519
2018-01-23T12:46:32.900Z,96517
2018-01-23T12:52:01.113Z,96513
2018-01-23T12:57:29.313Z,96519
2018-01-23T13:02:57.527Z,96512
2018-01-23T13:08:26.939Z,96508
2018-01-23T13:13:55.941Z,96508
2018-01-23T13:19:24.233Z,96508
2018-01-23T13:24:53.635Z,96508
2018-01-23T13:30:22.641Z,96511
2018-01-23T13:35:50.980Z,96494
2018-01-23T13:41:19.181Z,96499
2018-01-23T13:46:48.424Z,96494
2018-01-23T13:52:16.630Z,96501
2018-01-23T13:57:44.838Z,96488
2018-01-23T14:03:13.825Z,96492
2018-01-23T14:08:42.040Z,96496
2018-01-23T14:14:10.296Z,96496
2018-01-23T14:19:38.482Z,96497
2018-01-23T14:25:06.776Z,96495
2018-01-23T14:30:36.212Z,96504
2018-01-23T14:36:05.201Z,96523
2018-01-23T14:41:33.382Z,96509
2018-01-23T14:47:02.499Z,96510
2018-01-23T14:52:30.673Z,96511
2018-01-23T14:57:58.918Z,96521
2018-01-23T15:03:27.125Z,96518
2018-01-23T15:08:55.317Z,96523
2018-01-23T15:14:25.587Z,96527
2018-01-23T15:19:53.780Z,96534
2018-01-23T15:25:24.020Z,96531
2018-01-23T15:30:52.665Z,96537
2018-01-23T15:36:20.979Z,96534
2018-01-23T15:41:49.192Z,96530
2018-01-23T15:47:17.400Z,96531
2018-01-23T15:52:45.693Z,96537
2018-01-23T15:58:13.877Z,96539
2018-01-23T16:03:42.166Z,96539
2018-01-23T16:09:10.384Z,96538
2018-01-23T16:14:38.582Z,96538
2018-01-23T16:20:06.764Z,96553
2018-01-23T16:25:34.960Z,96552
2018-01-23T16:31:03.163Z,96548
2018-01-23T16:36:31.360Z,96547
2018-01-23T16:41:59.541Z,96535
2018-01-23T16:47:27.747Z,96546
2018-01-23T16:52:55.928Z,96546
2018-01-23T16:58:25.101Z,96545
2018-01-23T17:03:57.216Z,96549
2018-01-23T17:09:26.374Z,96545
2018-01-23T17:14:54.584Z,96547
2018-01-23T17:20:23.708Z,96545
2018-01-23T17:25:51.946Z,96550
2018-01-23T17:31:20.912Z,96541
2018-01-23T17:36:49.143Z,96555
2018-01-23T17:42:17.340Z,96557
2018-01-23T17:47:45.552Z,96560
2018-01-23T17:53:14.005Z,96565
2018-01-23T17:58:43.003Z,96570
2018-01-23T18:04:12.225Z,96575
2018-01-23T18:09:40.424Z,96577
2018-01-23T18:15:08.617Z,96573
2018-01-23T18:20:36.801Z,96566
2018-01-23T18:26:04.989Z,96568
2018-01-23T18:31:33.181Z,96572
2018-01-23T18:37:02.307Z,96559
2018-01-23T18:42:30.493Z,96559
2018-01-23T18:47:59.559Z,96553
2018-01-23T18:53:28.509Z,96553
2018-01-23T18:58:56.699Z,96542
2018-01-23T19:04:24.916Z,96557
2018-01-23T19:09:53.859Z,96557
2018-01-23T19:15:22.084Z,96554
2018-01-23T19:20:50.315Z,96559
2018-01-23T19:26:18.545Z,96558
2018-01-23T19:31:48.079Z,96551
2018-01-23T19:37:18.441Z,96551
2018-01-23T19:42:46.689Z,96559
2018-01-23T19:48:15.030Z,96551
2018-01-23T19:53:43.616Z,96554
2018-01-23T19:59:11.812Z,96540
2018-01-23T20:04:40.027Z,96548
2018-01-23T20:10:08.218Z,96547
2018-01-23T20:15:37.324Z,96554
2018-01-23T20:21:05.538Z,96548
2018-01-23T20:26:34.481Z,96541
2018-01-23T20:32:03.674Z,96539
2018-01-23T20:37:37.682Z,96548
2018-01-23T20:43:06.722Z,96544
2018-01-23T20:48:34.926Z,96547
2018-01-23T20:54:03.903Z,96548
2018-01-23T20:59:32.247Z,96542
2018-01-23T21:05:00.541Z,96553
2018-01-23T21:10:28.739Z,96564
2018-01-23T21:15:59.758Z,96563
2018-01-23T21:21:28.915Z,96556
2018-01-23T21:26:57.103Z,96559
2018-01-23T21:32:29.188Z,96559
2018-01-23T21:38:03.798Z,96554
2018-01-23T21:43:33.646Z,96553
2018-01-23T21:49:01.818Z,96539
2018-01-23T21:54:30.242Z,96534
2018-01-23T21:59:58.440Z,96526
2018-01-23T22:05:26.626Z,96526
2018-01-23T22:10:55.573Z,96523
2018-01-23T22:16:39.560Z,96529
2018-01-23T22:22:08.538Z,96522
2018-01-23T22:27:36.767Z,96518
2018-01-23T22:33:09.473Z,96545
2018-01-23T22:38:37.654Z,96533
2018-01-23T22:44:05.852Z,96532
2018-01-23T22:49:35.982Z,96541
2018-01-23T22:55:05.132Z,96540
2018-01-23T23:00:35.303Z,96541
2018-01-23T23:06:08.953Z,96549
2018-01-23T23:11:37.138Z,96553
2018-01-23T23:17:06.106Z,96549
2018-01-23T23:22:34.302Z,96551
2018-01-23T23:28:25.228Z,96541
2018-01-23T23:33:53.448Z,96548
2018-01-23T23:39:21.660Z,96541
2018-01-23T23:44:49.865Z,96527
2018-01-23T23:50:25.614Z,96537
2018-01-23T23:55:54.558Z,96551
